Time;durP1;ratioP1;P1;durP2;ratioP2;P2;SDS_P1;SDS_P2;PMS_P1;PMS_P2;Temp;Humidity;BMP_temperature;BMP_pressure;BME280_temperature;BME280_humidity;BME280_pressure;Samples;Min_cycle;Max_cycle;Signal;HPM_P1;HPM_P2
2021/01/21 00:02:21;;;;;;;34.63;17.50;;;;;;;-4.43;100.00;95248.63;5018064;28;20041;-49
2021/01/21 00:04:49;;;;;;;31.75;16.77;;;;;;;-4.57;100.00;95246.78;5025658;28;20053;-46
2021/01/21 00:07:17;;;;;;;30.13;17.38;;;;;;;-4.64;100.00;95240.31;5024750;28;20057;-46
2021/01/21 00:09:44;;;;;;;31.15;17.23;;;;;;;-4.70;100.00;95241.47;5023730;28;20064;-48
2021/01/21 00:12:11;;;;;;;33.85;17.10;;;;;;;-4.75;100.00;95237.47;5018658;28;20044;-47
2021/01/21 00:14:38;;;;;;;35.20;17.77;;;;;;;-4.88;100.00;95230.44;5030282;28;20049;-50
2021/01/21 00:17:05;;;;;;;25.50;15.48;;;;;;;-4.79;100.00;95226.53;5017256;28;20041;-48
2021/01/21 00:19:32;;;;;;;26.77;15.35;;;;;;;-4.66;100.00;95221.56;5022238;28;20048;-48
2021/01/21 00:22:00;;;;;;;30.15;16.60;;;;;;;-4.60;100.00;95221.25;5022757;28;20065;-48
2021/01/21 00:24:27;;;;;;;27.48;15.63;;;;;;;-4.68;100.00;95218.22;5026219;28;20040;-46
2021/01/21 00:26:55;;;;;;;24.77;14.77;;;;;;;-4.57;100.00;95209.03;5021022;28;20038;-50
2021/01/21 00:29:22;;;;;;;29.00;15.48;;;;;;;-4.60;100.00;95198.09;5016628;28;20064;-47
2021/01/21 00:31:49;;;;;;;29.02;15.90;;;;;;;-4.64;100.00;95199.19;5020803;28;20073;-49
2021/01/21 00:34:17;;;;;;;30.08;16.00;;;;;;;-4.71;100.00;95193.53;5021591;28;20129;-47
2021/01/21 00:36:44;;;;;;;26.13;13.98;;;;;;;-4.70;100.00;95192.63;5008850;28;20124;-49
2021/01/21 00:39:12;;;;;;;27.15;14.85;;;;;;;-4.69;100.00;95196.00;5017104;28;20083;-50
2021/01/21 00:41:39;;;;;;;34.58;17.27;;;;;;;-5.02;100.00;95197.75;5020281;28;20053;-47
2021/01/21 00:44:06;;;;;;;33.72;16.98;;;;;;;-5.23;100.00;95198.91;5022920;28;20115;-49
2021/01/21 00:46:33;;;;;;;32.72;16.58;;;;;;;-5.52;100.00;95198.66;5026042;28;20124;-48
2021/01/21 00:49:01;;;;;;;32.15;16.45;;;;;;;-5.66;100.00;95188.25;5019124;28;20069;-49
2021/01/21 00:51:27;;;;;;;33.97;17.35;;;;;;;-5.55;100.00;95193.66;5023365;28;20033;-47
2021/01/21 00:53:55;;;;;;;31.60;16.85;;;;;;;-5.33;100.00;95180.56;5025609;28;20508;-48
2021/01/21 00:56:24;;;;;;;32.30;16.95;;;;;;;-5.17;100.00;95175.44;5026412;28;20065;-52
2021/01/21 00:58:51;;;;;;;33.05;16.23;;;;;;;-5.02;100.00;95168.66;5021118;28;20377;-47
2021/01/21 01:01:19;;;;;;;27.80;15.68;;;;;;;-4.90;100.00;95154.31;5025399;28;20121;-47
2021/01/21 01:03:47;;;;;;;30.27;16.15;;;;;;;-4.81;100.00;95156.38;5018548;28;20038;-48
2021/01/21 01:06:15;;;;;;;30.48;15.80;;;;;;;-4.68;100.00;95161.66;5026918;28;20041;-47
2021/01/21 01:08:44;;;;;;;31.02;15.45;;;;;;;-4.85;100.00;95178.00;5022278;28;20125;-48
2021/01/21 01:11:11;;;;;;;46.53;11.10;;;;;;;-4.98;100.00;95180.44;5005381;28;20040;-47
2021/01/21 01:13:39;;;;;;;20.88;12.70;;;;;;;-4.87;100.00;95174.72;5025015;28;20496;-49
2021/01/21 01:16:09;;;;;;;21.27;13.38;;;;;;;-4.86;100.00;95164.31;5024548;28;20488;-47
2021/01/21 01:18:46;;;;;;;21.17;13.40;;;;;;;-4.72;100.00;95166.13;5020406;28;20144;-48
2021/01/21 01:21:14;;;;;;;23.65;13.52;;;;;;;-4.71;100.00;95167.81;5022108;28;20052;-51
2021/01/21 01:23:41;;;;;;;24.80;13.98;;;;;;;-4.64;100.00;95176.03;5029925;28;20080;-47
2021/01/21 01:26:09;;;;;;;20.85;13.43;;;;;;;-4.79;100.00;95168.22;5024662;28;20514;-48
2021/01/21 01:28:40;;;;;;;21.75;14.07;;;;;;;-4.73;100.00;95163.66;5010543;28;20048;-47
2021/01/21 01:31:09;;;;;;;22.58;13.55;;;;;;;-4.67;100.00;95161.59;5036245;28;20503;-50
2021/01/21 01:33:37;;;;;;;22.35;13.88;;;;;;;-4.60;100.00;95165.47;5019667;28;20500;-47
2021/01/21 01:36:05;;;;;;;26.42;13.65;;;;;;;-4.57;100.00;95155.03;5010093;28;20057;-47
2021/01/21 01:38:33;;;;;;;21.80;13.70;;;;;;;-4.49;100.00;95146.88;5023197;28;20049;-47
2021/01/21 01:41:21;;;;;;;26.20;15.48;;;;;;;-4.37;100.00;95135.91;5012123;28;20072;-51
2021/01/21 01:43:49;;;;;;;24.95;15.25;;;;;;;-4.36;100.00;95131.59;5025034;28;20052;-47
2021/01/21 01:46:18;;;;;;;25.80;14.77;;;;;;;-4.37;100.00;95130.75;5024414;28;20053;-49
2021/01/21 01:48:45;;;;;;;23.25;13.95;;;;;;;-4.30;100.00;95132.06;5009305;28;20044;-47
2021/01/21 01:51:12;;;;;;;23.63;14.68;;;;;;;-4.28;100.00;95137.09;5021999;28;20037;-47
2021/01/21 01:53:43;;;;;;;25.60;15.25;;;;;;;-4.28;100.00;95141.44;5026150;28;20049;-47
2021/01/21 01:56:17;;;;;;;24.10;14.43;;;;;;;-4.36;100.00;95150.41;5000155;28;20048;-47
2021/01/21 01:58:59;;;;;;;25.13;14.93;;;;;;;-4.37;100.00;95166.78;5022258;28;20046;-46
2021/01/21 02:01:38;;;;;;;27.50;14.97;;;;;;;-4.56;100.00;95176.44;5015915;28;20496;-46
2021/01/21 02:04:14;;;;;;;20.70;11.80;;;;;;;-4.51;100.00;95189.03;5020282;28;20392;-46
2021/01/21 02:07:04;;;;;;;24.02;14.13;;;;;;;-4.23;100.00;95188.31;5012854;28;20092;-47
2021/01/21 02:09:37;;;;;;;23.70;14.18;;;;;;;-3.95;100.00;95192.72;5023473;28;20042;-47
2021/01/21 02:12:13;;;;;;;24.67;13.85;;;;;;;-3.67;100.00;95195.34;5023921;28;20152;-47
2021/01/21 02:14:47;;;;;;;22.40;15.00;;;;;;;-3.60;100.00;95185.53;5022003;28;20061;-46
2021/01/21 02:17:21;;;;;;;23.75;15.20;;;;;;;-3.41;100.00;95188.66;5022988;28;20416;-48
2021/01/21 02:20:22;;;;;;;24.27;14.88;;;;;;;-3.45;100.00;95182.03;5023875;28;20037;-49
2021/01/21 02:23:14;;;;;;;24.30;15.35;;;;;;;-3.54;100.00;95179.16;5022269;28;20167;-50
2021/01/21 02:25:46;;;;;;;24.70;15.45;;;;;;;-3.61;100.00;95176.16;5017309;28;20045;-46
2021/01/21 02:28:35;;;;;;;24.95;14.77;;;;;;;-3.60;100.00;95176.03;5024051;28;20073;-46
2021/01/21 02:31:05;;;;;;;24.10;15.25;;;;;;;-3.62;100.00;95179.63;5010940;28;20280;-48
2021/01/21 02:33:54;;;;;;;26.33;17.77;;;;;;;-3.67;100.00;95164.44;5022577;28;20053;-47
2021/01/21 02:36:25;;;;;;;26.52;15.57;;;;;;;-3.65;100.00;95162.63;5029844;28;20092;-50
2021/01/21 02:38:53;;;;;;;28.85;17.75;;;;;;;-3.73;100.00;95151.91;5027066;28;20087;-47
2021/01/21 02:41:22;;;;;;;28.10;17.27;;;;;;;-3.70;100.00;95150.91;5021642;28;20041;-48
2021/01/21 02:43:53;;;;;;;28.38;18.08;;;;;;;-3.63;100.00;95147.88;5024529;28;20125;-47
2021/01/21 02:46:23;;;;;;;33.00;17.75;;;;;;;-3.59;100.00;95145.94;5027343;28;20120;-46
2021/01/21 02:48:53;;;;;;;26.58;16.50;;;;;;;-3.36;100.00;95142.00;5023929;28;20052;-52
2021/01/21 02:51:29;;;;;;;25.25;14.90;;;;;;;-3.44;100.00;95129.59;5021667;28;20037;-51
2021/01/21 02:54:19;;;;;;;24.60;13.40;;;;;;;-3.50;100.00;95118.81;5027158;28;20048;-48
2021/01/21 02:56:47;;;;;;;25.42;16.65;;;;;;;-3.52;100.00;95120.66;5022207;28;20385;-49
2021/01/21 02:59:17;;;;;;;23.65;15.52;;;;;;;-3.53;100.00;95119.84;5027001;28;20068;-47
2021/01/21 03:01:46;;;;;;;23.80;15.02;;;;;;;-3.40;100.00;95119.91;5028291;28;20087;-47
2021/01/21 03:04:15;;;;;;;24.63;15.32;;;;;;;-3.26;100.00;95117.31;5017924;28;20045;-46
2021/01/21 03:06:42;;;;;;;23.58;14.93;;;;;;;-3.29;100.00;95102.03;5023929;28;20053;-47
2021/01/21 03:09:25;;;;;;;24.15;14.70;;;;;;;-3.26;100.00;95106.19;5023649;28;20132;-47
2021/01/21 03:11:52;;;;;;;20.42;13.73;;;;;;;-3.15;100.00;95112.34;5019600;28;20087;-47
2021/01/21 03:14:20;;;;;;;24.52;14.30;;;;;;;-3.04;100.00;95119.41;5005638;28;20065;-50
2021/01/21 03:16:47;;;;;;;23.77;14.85;;;;;;;-2.89;100.00;95125.34;5041647;28;20419;-47
2021/01/21 03:19:17;;;;;;;24.30;14.45;;;;;;;-2.95;100.00;95136.88;5022247;28;20201;-48
2021/01/21 03:21:45;;;;;;;24.27;14.27;;;;;;;-3.00;100.00;95135.50;5036453;28;20042;-50
2021/01/21 03:24:19;;;;;;;23.88;14.73;;;;;;;-3.06;100.00;95141.03;5022036;28;20034;-49
2021/01/21 03:26:56;;;;;;;26.45;15.00;;;;;;;-2.94;100.00;95148.03;5026808;28;20049;-48
2021/01/21 03:29:26;;;;;;;21.95;14.20;;;;;;;-3.11;100.00;95146.47;5003328;28;20049;-48
2021/01/21 03:31:53;;;;;;;24.23;13.55;;;;;;;-3.29;100.00;95143.28;5028051;28;20052;-47
2021/01/21 03:34:25;;;;;;;23.63;14.70;;;;;;;-3.37;100.00;95146.34;5028967;28;20133;-48
2021/01/21 03:37:02;;;;;;;23.00;13.85;;;;;;;-3.31;100.00;95146.88;5018418;28;20091;-48
2021/01/21 03:39:31;;;;;;;24.55;14.30;;;;;;;-3.24;100.00;95148.97;5024306;28;20049;-49
2021/01/21 03:42:23;;;;;;;24.15;14.60;;;;;;;-3.11;100.00;95141.31;5019287;28;20468;-48
2021/01/21 03:45:11;;;;;;;22.67;14.48;;;;;;;-3.00;100.00;95138.09;5023561;28;20057;-48
2021/01/21 03:47:38;;;;;;;25.33;16.02;;;;;;;-3.02;100.00;95137.38;5026582;28;20133;-47
2021/01/21 03:50:08;;;;;;;22.77;14.27;;;;;;;-3.02;100.00;95137.38;5022388;28;20810;-47
2021/01/21 03:52:38;;;;;;;21.77;14.23;;;;;;;-2.99;100.00;95144.91;5023570;28;20041;-47
2021/01/21 03:55:13;;;;;;;26.48;15.15;;;;;;;-2.91;100.00;95147.84;5005694;28;20607;-49
2021/01/21 03:57:44;;;;;;;27.50;15.55;;;;;;;-2.85;100.00;95144.88;5012873;28;20092;-51
2021/01/21 04:00:27;;;;;;;22.75;14.50;;;;;;;-2.77;100.00;95140.06;5021842;28;20060;-47
2021/01/21 04:02:57;;;;;;;;;;;;;;;-2.80;100.00;95142.81;5026458;28;20033;-47
2021/01/21 04:05:55;;;;;;;22.23;13.23;;;;;;;-2.97;100.00;95145.63;5005813;28;19917;-50
2021/01/21 04:08:24;;;;;;;;;;;;;;;-2.94;100.00;95145.44;5024913;28;20099;-47
2021/01/21 04:10:59;;;;;;;22.33;14.35;;;;;;;-2.98;100.00;95147.38;5006521;28;19932;-48
2021/01/21 04:13:31;;;;;;;20.88;13.40;;;;;;;-3.12;100.00;95152.56;5025203;28;20475;-47
2021/01/21 04:16:07;;;;;;;23.48;14.25;;;;;;;-3.14;100.00;95162.13;5002088;28;20099;-49
2021/01/21 04:18:34;;;;;;;23.25;13.80;;;;;;;-3.16;100.00;95151.09;5026917;28;20053;-49
2021/01/21 04:21:06;;;;;;;26.15;14.60;;;;;;;-3.22;100.00;95133.44;5011844;28;20044;-48
2021/01/21 04:23:35;;;;;;;24.63;15.80;;;;;;;-3.17;100.00;95129.63;5035996;28;20033;-49
2021/01/21 04:26:09;;;;;;;23.77;15.13;;;;;;;-3.15;100.00;95129.56;5007446;28;20029;-49
2021/01/21 04:28:40;;;;;;;23.85;14.15;;;;;;;-3.04;100.00;95137.44;5024146;28;20508;-50
2021/01/21 04:31:07;;;;;;;24.05;14.50;;;;;;;-3.03;100.00;95143.44;5029082;28;20033;-50
2021/01/21 04:33:34;;;;;;;24.23;14.45;;;;;;;-3.06;100.00;95133.28;5023382;28;20045;-47
2021/01/21 04:36:03;;;;;;;25.80;14.50;;;;;;;-3.03;100.00;95135.69;5011624;28;20048;-47
2021/01/21 04:38:37;;;;;;;24.85;14.82;;;;;;;-3.18;100.00;95143.44;5022780;28;20496;-50
2021/01/21 04:41:09;;;;;;;22.92;13.95;;;;;;;-3.09;100.00;95139.50;5016941;28;20049;-46
2021/01/21 04:43:52;;;;;;;23.33;13.52;;;;;;;-3.13;100.00;95151.75;5024263;28;20049;-47
2021/01/21 04:46:32;;;;;;;22.40;13.33;;;;;;;-3.13;100.00;95149.16;5004506;28;20041;-48
2021/01/21 04:49:02;;;;;;;21.60;12.57;;;;;;;-3.14;100.00;95152.66;5020252;28;20810;-48
2021/01/21 04:51:30;;;;;;;20.45;12.77;;;;;;;-3.30;100.00;95161.41;5021072;28;20492;-47
2021/01/21 04:54:11;;;;;;;20.10;12.45;;;;;;;-3.25;100.00;95156.81;5023014;28;20049;-47
2021/01/21 04:56:55;;;;;;;23.35;13.75;;;;;;;-3.14;100.00;95156.97;5030089;28;20107;-51
2021/01/21 04:59:41;;;;;;;21.95;13.02;;;;;;;-3.17;100.00;95150.25;5017914;28;20107;-53
2021/01/21 05:02:16;;;;;;;19.88;12.27;;;;;;;-3.15;100.00;95142.44;5047173;23;20739;-52
2021/01/21 05:04:57;;;;;;;25.27;13.52;;;;;;;-3.15;100.00;95140.69;5043092;28;20065;-55
2021/01/21 05:07:38;;;;;;;21.25;13.00;;;;;;;-3.14;100.00;95142.34;5053546;28;20056;-57
2021/01/21 05:10:09;;;;;;;20.55;12.63;;;;;;;-3.09;100.00;95141.25;5041330;28;20048;-54
2021/01/21 05:12:37;;;;;;;20.65;13.07;;;;;;;-3.01;100.00;95137.25;5045953;28;20051;-54
2021/01/21 05:15:25;;;;;;;22.40;13.45;;;;;;;-2.96;100.00;95131.81;5024616;28;20079;-49
2021/01/21 05:18:17;;;;;;;21.90;13.07;;;;;;;-2.91;100.00;95135.75;5040344;28;20415;-52
2021/01/21 05:21:17;;;;;;;22.60;14.35;;;;;;;-2.92;100.00;95141.84;5016129;28;20069;-57
2021/01/21 05:24:04;;;;;;;23.05;13.93;;;;;;;-2.97;100.00;95146.44;5049481;28;20174;-52
2021/01/21 05:26:52;;;;;;;26.05;14.73;;;;;;;-2.98;100.00;95149.13;5032499;28;20094;-55
2021/01/21 05:29:50;;;;;;;22.80;14.27;;;;;;;-2.92;100.00;95148.78;5031242;28;20044;-53
2021/01/21 05:32:19;;;;;;;23.08;13.48;;;;;;;-2.97;100.00;95138.72;5040063;28;20052;-50
2021/01/21 05:35:08;;;;;;;20.55;13.23;;;;;;;-2.91;100.00;95137.53;5043590;28;20598;-49
2021/01/21 05:37:38;;;;;;;21.92;13.77;;;;;;;-2.90;100.00;95140.00;5042064;28;20041;-56
2021/01/21 05:40:38;;;;;;;25.88;13.98;;;;;;;-2.83;100.00;95139.63;5004335;28;20060;-56
2021/01/21 05:43:22;;;;;;;22.98;13.27;;;;;;;-2.74;100.00;95152.75;5046418;28;20049;-55
2021/01/21 05:46:01;;;;;;;22.08;13.50;;;;;;;-2.75;100.00;95156.28;5043061;28;20051;-55
2021/01/21 05:48:31;;;;;;;24.17;14.07;;;;;;;-2.71;100.00;95156.91;5044962;28;20506;-54
2021/01/21 05:50:59;;;;;;;21.77;13.33;;;;;;;-2.73;100.00;95149.25;5043145;28;20079;-54
2021/01/21 05:53:26;;;;;;;22.33;13.50;;;;;;;-2.70;100.00;95149.06;5052587;28;20296;-53
2021/01/21 05:55:57;;;;;;;22.88;15.07;;;;;;;-2.74;100.00;95150.19;5038164;28;20048;-50
2021/01/21 05:58:38;;;;;;;21.58;14.38;;;;;;;-2.84;100.00;95149.09;5044949;28;20041;-51
2021/01/21 06:01:06;;;;;;;22.55;13.45;;;;;;;-2.99;100.00;95157.81;5041420;28;20052;-55
2021/01/21 06:03:43;;;;;;;23.33;13.57;;;;;;;-2.96;100.00;95163.59;5046245;28;20068;-55
2021/01/21 06:06:25;;;;;;;22.88;14.02;;;;;;;-2.96;100.00;95157.59;5038898;28;20037;-54
2021/01/21 06:08:53;;;;;;;23.83;13.55;;;;;;;-2.89;100.00;95156.28;5041332;28;20045;-54
2021/01/21 06:11:21;;;;;;;22.33;13.43;;;;;;;-2.80;100.00;95162.63;5039811;28;20055;-50
2021/01/21 06:13:49;;;;;;;22.85;14.43;;;;;;;-2.82;100.00;95160.16;5045613;28;20499;-54
2021/01/21 06:16:16;;;;;;;21.95;13.77;;;;;;;-2.78;100.00;95163.38;5035074;28;20049;-54
2021/01/21 06:18:44;;;;;;;24.08;13.95;;;;;;;-2.76;100.00;95162.34;5039111;28;20049;-54
2021/01/21 06:21:24;;;;;;;21.25;12.80;;;;;;;-2.57;100.00;95162.03;5041952;28;20049;-54
2021/01/21 06:24:04;;;;;;;24.20;14.02;;;;;;;-2.50;100.00;95160.72;5046159;28;20037;-56
2021/01/21 06:26:42;;;;;;;20.85;12.63;;;;;;;-2.34;100.00;95151.97;5040388;28;20140;-53
2021/01/21 06:29:15;;;;;;;20.42;13.38;;;;;;;-2.40;100.00;95156.63;5055893;28;20049;-54
2021/01/21 06:31:43;;;;;;;20.70;13.05;;;;;;;-2.56;100.00;95152.53;5036021;28;20306;-55
2021/01/21 06:34:14;;;;;;;26.88;13.52;;;;;;;-2.59;100.00;95155.31;5039665;28;20045;-55
2021/01/21 06:36:43;;;;;;;45.67;25.02;;;;;;;-2.47;100.00;95154.53;5041714;28;20626;-56
2021/01/21 06:39:15;;;;;;;28.85;16.77;;;;;;;-2.61;100.00;95159.75;5042953;28;20526;-53
2021/01/21 06:41:45;;;;;;;27.65;16.02;;;;;;;-2.65;100.00;95167.69;5042663;28;21247;-53
2021/01/21 06:44:16;;;;;;;22.20;13.55;;;;;;;-2.61;100.00;95162.31;5046566;28;20094;-54
2021/01/21 06:46:44;;;;;;;27.90;15.70;;;;;;;-2.59;100.00;95150.13;5040294;28;20042;-54
2021/01/21 06:49:13;;;;;;;23.13;14.32;;;;;;;-2.60;100.00;95157.06;5033668;28;20080;-55
2021/01/21 06:51:44;;;;;;;22.20;14.02;;;;;;;-2.64;100.00;95161.59;5044254;28;20084;-54
2021/01/21 06:54:12;;;;;;;22.88;14.30;;;;;;;-2.62;100.00;95158.91;5043034;28;20652;-54
2021/01/21 06:56:39;;;;;;;34.13;16.92;;;;;;;-2.72;100.00;95155.25;5044970;28;20103;-54
2021/01/21 06:59:06;;;;;;;22.65;14.00;;;;;;;-2.89;100.00;95154.56;5041634;28;20608;-56
2021/01/21 07:01:43;;;;;;;21.65;12.90;;;;;;;-2.84;100.00;95167.16;5040334;28;20538;-55
2021/01/21 07:04:27;;;;;;;23.77;13.77;;;;;;;-2.88;100.00;95165.69;5045205;28;20045;-53
2021/01/21 07:07:06;;;;;;;39.78;18.92;;;;;;;-2.84;100.00;95172.31;5049218;28;20052;-53
2021/01/21 07:09:40;;;;;;;47.05;19.58;;;;;;;-2.74;100.00;95167.41;5042877;28;20476;-55
2021/01/21 07:12:16;;;;;;;48.47;22.08;;;;;;;-2.75;100.00;95158.00;5049545;28;20037;-49
2021/01/21 07:14:45;;;;;;;52.58;22.38;;;;;;;-2.73;100.00;95163.91;5045198;28;20126;-54
2021/01/21 07:17:14;;;;;;;50.10;22.30;;;;;;;-2.59;100.00;95153.53;5046565;28;20097;-51
2021/01/21 07:19:44;;;;;;;36.63;18.30;;;;;;;-2.57;100.00;95148.31;5040290;28;20053;-55
2021/01/21 07:22:14;;;;;;;33.55;15.68;;;;;;;-2.60;100.00;95151.06;5046409;28;20133;-55
2021/01/21 07:24:53;;;;;;;53.30;25.17;;;;;;;-2.50;100.00;95155.56;5045763;28;20140;-55
2021/01/21 07:27:21;;;;;;;23.85;15.07;;;;;;;-2.49;100.00;95157.19;5042006;28;20045;-55
2021/01/21 07:29:48;;;;;;;23.75;14.85;;;;;;;-2.46;100.00;95158.75;5045939;28;20106;-51
2021/01/21 07:32:26;;;;;;;26.85;15.55;;;;;;;-2.39;100.00;95160.84;5046400;28;20118;-53
2021/01/21 07:34:54;;;;;;;26.85;15.93;;;;;;;-2.19;100.00;95158.75;5040492;28;20053;-53
2021/01/21 07:37:23;;;;;;;37.28;21.08;;;;;;;-1.91;100.00;95157.75;5048829;28;20419;-55
2021/01/21 07:39:55;;;;;;;28.05;16.92;;;;;;;-1.80;100.00;95150.13;5038962;28;20091;-55
2021/01/21 07:42:53;;;;;;;24.42;15.73;;;;;;;-1.51;100.00;95147.38;5048398;28;20151;-54
2021/01/21 07:45:29;;;;;;;28.33;16.38;;;;;;;-1.78;100.00;95150.88;5041084;28;20037;-54
2021/01/21 07:48:18;;;;;;;23.52;13.98;;;;;;;-1.67;100.00;95140.63;5042808;28;20043;-54
2021/01/21 07:50:46;;;;;;;23.38;13.63;;;;;;;-1.81;100.00;95143.31;5042276;28;20045;-56
2021/01/21 07:53:26;;;;;;;36.60;19.95;;;;;;;-1.71;100.00;95159.03;5048010;28;20090;-56
2021/01/21 07:55:55;;;;;;;25.23;14.95;;;;;;;-1.47;100.00;95153.97;5039571;28;20103;-52
2021/01/21 07:58:35;;;;;;;22.27;13.75;;;;;;;-1.22;100.00;95143.59;5045690;28;20503;-56
2021/01/21 08:01:06;;;;;;;19.05;11.00;;;;;;;-1.28;100.00;95156.13;5043784;28;20527;-52
2021/01/21 08:03:36;;;;;;;18.63;11.80;;;;;;;-1.34;99.57;95152.22;5038027;28;20512;-52
2021/01/21 08:06:06;;;;;;;17.23;12.10;;;;;;;-1.11;98.90;95139.44;5046409;28;20048;-52
2021/01/21 08:08:34;;;;;;;22.08;12.07;;;;;;;-0.87;98.69;95140.31;5047041;28;20073;-55
2021/01/21 08:11:03;;;;;;;20.42;13.00;;;;;;;-0.70;96.87;95136.53;5037248;28;20049;-56
2021/01/21 08:13:30;;;;;;;24.20;13.93;;;;;;;-0.75;97.05;95144.66;5042581;28;20041;-54
2021/01/21 08:15:57;;;;;;;25.58;15.27;;;;;;;-0.53;97.02;95138.75;5043607;28;20454;-54
2021/01/21 08:18:25;;;;;;;29.85;16.15;;;;;;;-0.34;97.16;95138.28;5045565;28;20037;-56
2021/01/21 08:20:54;;;;;;;28.23;16.50;;;;;;;-0.24;95.44;95133.25;5043435;28;20064;-54
2021/01/21 08:23:21;;;;;;;29.88;17.27;;;;;;;0.05;95.10;95132.88;5047421;28;20041;-54
2021/01/21 08:25:50;;;;;;;26.53;18.57;;;;;;;0.46;91.92;95124.59;5039107;28;20437;-52
2021/01/21 08:28:19;;;;;;;30.70;18.55;;;;;;;0.76;89.45;95118.84;5042086;28;20057;-53
2021/01/21 08:30:48;;;;;;;29.77;17.23;;;;;;;0.46;88.36;95115.06;5042815;28;20045;-51
2021/01/21 08:33:16;;;;;;;26.35;16.98;;;;;;;0.54;88.88;95118.81;5046078;28;20033;-51
2021/01/21 08:35:47;;;;;;;25.00;15.73;;;;;;;0.32;91.01;95111.84;5045312;28;20067;-48
2021/01/21 08:38:22;;;;;;;30.17;18.30;;;;;;;0.42;91.81;95105.03;5042253;28;20029;-52
2021/01/21 08:40:50;;;;;;;30.48;17.67;;;;;;;0.57;91.28;95095.25;5048771;28;20045;-50
2021/01/21 08:43:17;;;;;;;27.90;17.58;;;;;;;0.91;90.45;95093.47;5046901;28;20679;-51
2021/01/21 08:45:44;;;;;;;36.22;21.73;;;;;;;0.68;90.43;95092.66;5044719;28;20475;-53
2021/01/21 08:48:23;;;;;;;36.60;21.73;;;;;;;0.85;90.58;95102.56;5041289;28;20132;-50
2021/01/21 08:50:50;;;;;;;36.25;22.70;;;;;;;0.88;90.95;95102.31;5057983;28;20136;-49
2021/01/21 08:53:21;;;;;;;42.00;24.52;;;;;;;0.67;92.95;95109.16;5042414;28;20479;-47
2021/01/21 08:55:51;;;;;;;41.28;25.05;;;;;;;1.21;91.11;95107.59;5040793;28;20049;-49
2021/01/21 08:58:20;;;;;;;40.45;23.52;;;;;;;1.78;88.17;95109.06;5040694;28;20048;-50
2021/01/21 09:01:02;;;;;;;32.25;20.48;;;;;;;2.52;85.08;95115.06;5046043;28;20044;-48
2021/01/21 09:03:36;;;;;;;36.55;21.05;;;;;;;2.58;82.54;95093.75;5046229;28;20053;-47
2021/01/21 09:06:07;;;;;;;36.45;21.40;;;;;;;3.05;79.74;95091.44;5044083;28;20071;-49
2021/01/21 09:08:50;;;;;;;32.42;20.10;;;;;;;3.26;78.52;95096.56;5040483;28;20372;-50
2021/01/21 09:11:32;;;;;;;30.58;19.50;;;;;;;3.55;77.09;95090.63;5036622;28;20091;-50
2021/01/21 09:14:01;;;;;;;22.30;14.93;;;;;;;3.44;75.56;95094.16;5039083;28;20099;-49
2021/01/21 09:16:50;;;;;;;22.60;14.90;;;;;;;3.49;74.72;95096.34;5046623;28;20408;-48
2021/01/21 09:19:38;;;;;;;21.73;13.50;;;;;;;3.60;73.40;95098.84;5030591;28;20539;-50
2021/01/21 09:22:07;;;;;;;26.98;15.77;;;;;;;3.82;76.19;95103.00;5043246;28;20037;-49
2021/01/21 09:24:53;;;;;;;23.75;15.93;;;;;;;4.24;74.90;95102.69;5044833;28;20041;-50
2021/01/21 09:27:21;;;;;;;22.20;14.73;;;;;;;4.38;72.67;95099.63;5045474;28;20045;-51
2021/01/21 09:29:50;;;;;;;19.67;12.85;;;;;;;5.13;70.26;95097.91;5043339;28;20045;-47
2021/01/21 09:32:18;;;;;;;20.70;12.70;;;;;;;4.99;68.70;95099.19;5042346;28;20044;-52
2021/01/21 09:34:59;;;;;;;19.02;13.00;;;;;;;5.34;68.44;95105.50;5033809;28;20068;-47
2021/01/21 09:37:29;;;;;;;19.17;12.38;;;;;;;6.03;66.61;95101.47;5043562;28;20044;-47
2021/01/21 09:39:58;;;;;;;18.33;12.17;;;;;;;5.50;66.36;95101.41;5041809;28;20204;-54
2021/01/21 09:42:25;;;;;;;18.27;11.63;;;;;;;5.48;66.63;95102.38;5039849;28;20774;-51
2021/01/21 09:44:52;;;;;;;17.20;12.05;;;;;;;5.30;67.77;95106.75;5045125;28;20048;-53
2021/01/21 09:47:20;;;;;;;19.83;13.20;;;;;;;5.75;67.85;95098.09;5043885;28;20080;-46
2021/01/21 09:49:47;;;;;;;15.82;11.05;;;;;;;5.53;69.28;95112.38;5044118;28;20049;-50
2021/01/21 09:52:15;;;;;;;17.55;11.50;;;;;;;5.81;70.00;95107.94;5039200;28;20048;-46
2021/01/21 09:54:42;;;;;;;16.85;11.43;;;;;;;6.26;67.00;95120.13;5039514;28;20493;-51
2021/01/21 09:57:10;;;;;;;18.60;11.10;;;;;;;6.08;67.43;95112.31;5036209;28;20115;-50
2021/01/21 09:59:38;;;;;;;14.82;10.15;;;;;;;6.14;66.83;95119.56;5036938;28;20042;-47
2021/01/21 10:02:06;;;;;;;17.02;10.38;;;;;;;5.99;67.30;95121.06;5046698;28;20134;-49
2021/01/21 10:04:36;;;;;;;14.07;10.02;;;;;;;6.18;67.58;95131.38;5040719;28;20636;-49
2021/01/21 10:07:04;;;;;;;16.37;9.17;;;;;;;5.02;74.01;95157.31;5040558;28;20386;-50
2021/01/21 10:09:32;;;;;;;13.73;9.18;;;;;;;5.43;71.47;95145.59;5041636;28;20573;-49
2021/01/21 10:12:00;;;;;;;13.70;8.90;;;;;;;5.38;72.35;95158.28;5047323;28;20040;-47
2021/01/21 10:14:28;;;;;;;16.90;11.45;;;;;;;5.03;73.65;95161.59;5041751;28;20072;-47
2021/01/21 10:16:56;;;;;;;18.10;11.85;;;;;;;4.75;75.85;95178.03;5039950;28;20076;-49
2021/01/21 10:19:24;;;;;;;16.17;10.85;;;;;;;5.00;73.33;95162.69;5047624;28;20408;-48
2021/01/21 10:21:51;;;;;;;14.27;10.13;;;;;;;5.20;70.80;95168.69;5043006;28;20041;-53
2021/01/21 10:24:18;;;;;;;14.00;10.48;;;;;;;5.19;71.56;95167.84;5041254;28;20048;-47
2021/01/21 10:26:46;;;;;;;13.82;8.82;;;;;;;5.47;68.97;95160.88;5042872;28;20080;-48
2021/01/21 10:29:13;;;;;;;15.95;9.25;;;;;;;5.80;66.65;95156.00;5037387;28;20037;-44
2021/01/21 10:31:41;;;;;;;13.65;8.98;;;;;;;5.93;66.66;95148.63;5036644;28;20049;-47
2021/01/21 10:34:09;;;;;;;13.35;8.57;;;;;;;6.20;65.43;95154.78;5046502;28;20045;-49
2021/01/21 10:36:37;;;;;;;11.70;8.45;;;;;;;6.35;64.52;95148.03;5040381;28;20045;-47
2021/01/21 10:39:04;;;;;;;;;;;;;;;6.59;63.44;95139.56;5048414;28;20052;-49
2021/01/21 10:41:32;;;;;;;;;;;;;;;7.15;61.31;95129.56;5048630;28;20039;-47
2021/01/21 10:44:01;;;;;;;168.80;98.07;;;;;;;7.45;59.96;95132.66;5044621;28;19921;-51
2021/01/21 10:46:28;;;;;;;48.15;26.55;;;;;;;7.65;59.00;95144.53;5042673;28;20415;-50
2021/01/21 10:48:56;;;;;;;33.60;13.20;;;;;;;7.20;60.20;95137.00;5047428;28;20048;-54
2021/01/21 10:51:23;;;;;;;20.33;10.55;;;;;;;6.73;62.25;95139.97;5040131;28;20044;-50
2021/01/21 10:53:50;;;;;;;24.52;11.55;;;;;;;6.40;63.93;95140.56;5046641;28;20135;-51
2021/01/21 10:56:17;;;;;;;26.35;17.25;;;;;;;6.20;64.40;95136.47;5047185;28;20298;-50
2021/01/21 10:58:45;;;;;;;38.75;25.65;;;;;;;6.47;64.29;95134.69;5047872;28;20049;-49
2021/01/21 11:01:12;;;;;;;28.40;22.45;;;;;;;6.92;63.02;95129.31;5045725;28;20049;-45
2021/01/21 11:03:39;;;;;;;14.43;8.68;;;;;;;7.28;59.65;95129.16;5045729;28;20052;-53
2021/01/21 11:06:08;;;;;;;15.68;9.60;;;;;;;7.41;59.72;95126.09;5064931;28;20075;-46
2021/01/21 11:08:35;;;;;;;19.75;10.73;;;;;;;7.48;59.63;95121.88;5039618;28;20033;-47
2021/01/21 11:11:02;;;;;;;14.45;9.75;;;;;;;7.47;59.98;95120.22;5045963;28;20049;-46
2021/01/21 11:13:32;;;;;;;15.73;9.55;;;;;;;7.46;58.61;95114.13;5040707;28;20091;-47
2021/01/21 11:16:00;;;;;;;;;;;;;;;7.61;56.66;95111.75;5044517;28;20132;-51
2021/01/21 11:18:29;;;;;;;14.05;7.07;;;;;;;7.64;56.29;95113.22;5043638;28;19928;-47
2021/01/21 11:20:56;;;;;;;11.70;7.50;;;;;;;7.63;57.75;95101.91;5051683;28;20052;-51
2021/01/21 11:23:24;;;;;;;11.40;6.95;;;;;;;7.83;56.25;95102.44;5046202;28;20045;-49
2021/01/21 11:25:51;;;;;;;13.73;7.50;;;;;;;7.55;56.88;95104.50;5046685;28;20053;-50
2021/01/21 11:28:20;;;;;;;12.73;7.10;;;;;;;7.55;57.57;95096.63;5045615;28;20071;-50
2021/01/21 11:30:48;;;;;;;14.23;7.90;;;;;;;7.78;57.63;95100.31;5041446;28;20090;-48
2021/01/21 11:33:15;;;;;;;13.40;8.15;;;;;;;7.87;57.48;95101.13;5042064;28;20650;-49
2021/01/21 11:35:42;;;;;;;21.13;14.88;;;;;;;7.06;62.36;95099.88;5049611;28;20122;-53
2021/01/21 11:38:11;;;;;;;76.07;49.15;;;;;;;7.05;61.64;95092.97;5037502;28;20044;-52
2021/01/21 11:40:41;;;;;;;14.23;9.02;;;;;;;7.00;61.66;95083.97;5043553;28;20051;-46